sensor_id;sensor_type;location;lat;lon;timestamp;temperature;humidity
11284;DHT22;5698;47.332;11.180;2022-09-29T00:01:10;4.20;99.90
11284;DHT22;5698;47.332;11.180;2022-09-29T00:03:38;4.20;99.90
11284;DHT22;5698;47.332;11.180;2022-09-29T00:06:11;4.20;99.90
11284;DHT22;5698;47.332;11.180;2022-09-29T00:08:38;4.30;99.90
11284;DHT22;5698;47.332;11.180;2022-09-29T00:11:06;4.30;99.90
11284;DHT22;5698;47.332;11.180;2022-09-29T00:13:34;4.30;99.90
11284;DHT22;5698;47.332;11.180;2022-09-29T00:16:02;4.30;99.90
11284;DHT22;5698;47.332;11.180;2022-09-29T00:18:31;4.30;99.90
11284;DHT22;5698;47.332;11.180;2022-09-29T00:20:59;4.40;99.90
11284;DHT22;5698;47.332;11.180;2022-09-29T00:23:27;4.30;99.90
11284;DHT22;5698;47.332;11.180;2022-09-29T00:26:00;4.20;99.90
11284;DHT22;5698;47.332;11.180;2022-09-29T00:28:27;4.20;99.90
11284;DHT22;5698;47.332;11.180;2022-09-29T00:30:56;4.30;99.90
11284;DHT22;5698;47.332;11.180;2022-09-29T00:33:24;4.30;99.90
11284;DHT22;5698;47.332;11.180;2022-09-29T00:35:59;4.30;99.90
11284;DHT22;5698;47.332;11.180;2022-09-29T00:38:27;4.30;99.90
11284;DHT22;5698;47.332;11.180;2022-09-29T00:40:54;4.40;99.90
11284;DHT22;5698;47.332;11.180;2022-09-29T00:43:22;4.40;99.90
11284;DHT22;5698;47.332;11.180;2022-09-29T00:45:52;4.40;99.90
11284;DHT22;5698;47.332;11.180;2022-09-29T00:48:26;4.40;99.90
11284;DHT22;5698;47.332;11.180;2022-09-29T00:50:55;4.40;99.90
11284;DHT22;5698;47.332;11.180;2022-09-29T00:53:24;4.40;99.90
11284;DHT22;5698;47.332;11.180;2022-09-29T00:55:55;4.30;99.90
11284;DHT22;5698;47.332;11.180;2022-09-29T00:58:32;4.30;99.90
11284;DHT22;5698;47.332;11.180;2022-09-29T01:01:00;4.30;99.90
11284;DHT22;5698;47.332;11.180;2022-09-29T01:03:32;4.10;99.90
11284;DHT22;5698;47.332;11.180;2022-09-29T01:06:02;4.00;99.90
11284;DHT22;5698;47.332;11.180;2022-09-29T01:08:38;4.00;99.90
11284;DHT22;5698;47.332;11.180;2022-09-29T01:11:06;4.00;99.90
11284;DHT22;5698;47.332;11.180;2022-09-29T01:13:33;4.00;99.90
11284;DHT22;5698;47.332;11.180;2022-09-29T01:16:01;3.90;99.90
11284;DHT22;5698;47.332;11.180;2022-09-29T01:18:30;3.90;99.90
11284;DHT22;5698;47.332;11.180;2022-09-29T01:21:06;3.90;99.90
11284;DHT22;5698;47.332;11.180;2022-09-29T01:23:50;4.00;99.90
11284;DHT22;5698;47.332;11.180;2022-09-29T01:26:48;4.00;99.90
11284;DHT22;5698;47.332;11.180;2022-09-29T01:32:29;4.00;99.90
11284;DHT22;5698;47.332;11.180;2022-09-29T01:35:07;4.00;99.90
11284;DHT22;5698;47.332;11.180;2022-09-29T01:37:45;4.00;99.90
11284;DHT22;5698;47.332;11.180;2022-09-29T01:40:21;4.10;99.90
11284;DHT22;5698;47.332;11.180;2022-09-29T01:42:54;4.10;99.90
11284;DHT22;5698;47.332;11.180;2022-09-29T01:45:27;4.10;99.90
11284;DHT22;5698;47.332;11.180;2022-09-29T01:47:59;4.10;99.90
11284;DHT22;5698;47.332;11.180;2022-09-29T01:50:34;4.20;99.90
11284;DHT22;5698;47.332;11.180;2022-09-29T01:53:06;4.20;99.90
11284;DHT22;5698;47.332;11.180;2022-09-29T01:55:37;4.20;99.90
11284;DHT22;5698;47.332;11.180;2022-09-29T01:58:09;4.20;99.90
11284;DHT22;5698;47.332;11.180;2022-09-29T02:00:40;4.20;99.90
11284;DHT22;5698;47.332;11.180;2022-09-29T02:03:15;4.20;99.90
11284;DHT22;5698;47.332;11.180;2022-09-29T02:05:45;4.30;99.90
11284;DHT22;5698;47.332;11.180;2022-09-29T02:08:15;4.30;99.90
11284;DHT22;5698;47.332;11.180;2022-09-29T02:10:48;4.30;99.90
11284;DHT22;5698;47.332;11.180;2022-09-29T02:13:17;4.30;99.90
11284;DHT22;5698;47.332;11.180;2022-09-29T02:15:47;4.40;99.90
11284;DHT22;5698;47.332;11.180;2022-09-29T02:18:21;4.40;99.90
11284;DHT22;5698;47.332;11.180;2022-09-29T02:20:49;4.40;99.90
11284;DHT22;5698;47.332;11.180;2022-09-29T02:23:16;4.40;99.90
11284;DHT22;5698;47.332;11.180;2022-09-29T02:25:46;4.40;99.90
11284;DHT22;5698;47.332;11.180;2022-09-29T02:28:14;4.40;99.90
11284;DHT22;5698;47.332;11.180;2022-09-29T02:30:42;4.40;99.90
11284;DHT22;5698;47.332;11.180;2022-09-29T02:33:19;4.40;99.90
11284;DHT22;5698;47.332;11.180;2022-09-29T02:35:57;4.40;99.90
11284;DHT22;5698;47.332;11.180;2022-09-29T02:38:32;4.50;99.90
11284;DHT22;5698;47.332;11.180;2022-09-29T02:41:06;4.50;99.90
11284;DHT22;5698;47.332;11.180;2022-09-29T02:43:59;4.40;99.90
11284;DHT22;5698;47.332;11.180;2022-09-29T02:46:40;4.40;99.90
11284;DHT22;5698;47.332;11.180;2022-09-29T02:49:31;4.40;99.90
11284;DHT22;5698;47.332;11.180;2022-09-29T02:52:07;4.40;99.90
11284;DHT22;5698;47.332;11.180;2022-09-29T02:54:47;4.40;99.90
11284;DHT22;5698;47.332;11.180;2022-09-29T02:57:20;4.40;99.90
11284;DHT22;5698;47.332;11.180;2022-09-29T02:59:56;4.40;99.90
11284;DHT22;5698;47.332;11.180;2022-09-29T03:02:30;4.40;99.90
11284;DHT22;5698;47.332;11.180;2022-09-29T03:04:58;4.40;99.90
11284;DHT22;5698;47.332;11.180;2022-09-29T03:07:25;4.40;99.90
11284;DHT22;5698;47.332;11.180;2022-09-29T03:09:52;4.40;99.90
11284;DHT22;5698;47.332;11.180;2022-09-29T03:12:19;4.40;99.90
11284;DHT22;5698;47.332;11.180;2022-09-29T03:14:46;4.40;99.90
11284;DHT22;5698;47.332;11.180;2022-09-29T03:17:13;4.50;99.90
11284;DHT22;5698;47.332;11.180;2022-09-29T03:19:40;4.40;99.90
11284;DHT22;5698;47.332;11.180;2022-09-29T03:22:09;4.40;99.90
11284;DHT22;5698;47.332;11.180;2022-09-29T03:24:36;4.40;99.90
11284;DHT22;5698;47.332;11.180;2022-09-29T03:27:03;4.40;99.90
11284;DHT22;5698;47.332;11.180;2022-09-29T03:29:30;4.50;99.90
11284;DHT22;5698;47.332;11.180;2022-09-29T03:31:58;4.50;99.90
11284;DHT22;5698;47.332;11.180;2022-09-29T03:34:25;4.50;99.90
11284;DHT22;5698;47.332;11.180;2022-09-29T03:36:52;4.50;99.90
11284;DHT22;5698;47.332;11.180;2022-09-29T03:39:21;4.40;99.90
11284;DHT22;5698;47.332;11.180;2022-09-29T03:41:48;4.50;99.90
11284;DHT22;5698;47.332;11.180;2022-09-29T03:44:15;4.40;99.90
11284;DHT22;5698;47.332;11.180;2022-09-29T03:46:42;4.50;99.90
11284;DHT22;5698;47.332;11.180;2022-09-29T03:49:10;4.40;99.90
11284;DHT22;5698;47.332;11.180;2022-09-29T03:51:38;4.40;99.90
11284;DHT22;5698;47.332;11.180;2022-09-29T03:54:05;4.40;99.90
11284;DHT22;5698;47.332;11.180;2022-09-29T03:56:35;4.40;99.90
11284;DHT22;5698;47.332;11.180;2022-09-29T03:59:02;4.50;99.90
11284;DHT22;5698;47.332;11.180;2022-09-29T04:01:30;4.50;99.90
11284;DHT22;5698;47.332;11.180;2022-09-29T04:03:57;4.50;99.90
11284;DHT22;5698;47.332;11.180;2022-09-29T04:06:24;4.50;99.90
11284;DHT22;5698;47.332;11.180;2022-09-29T04:08:51;4.60;99.90
11284;DHT22;5698;47.332;11.180;2022-09-29T04:11:18;4.60;99.90
11284;DHT22;5698;47.332;11.180;2022-09-29T04:13:46;4.50;99.90
11284;DHT22;5698;47.332;11.180;2022-09-29T04:16:13;4.60;99.90
11284;DHT22;5698;47.332;11.180;2022-09-29T04:18:40;4.60;99.90
11284;DHT22;5698;47.332;11.180;2022-09-29T04:21:08;4.50;99.90
11284;DHT22;5698;47.332;11.180;2022-09-29T04:23:35;4.50;99.90
11284;DHT22;5698;47.332;11.180;2022-09-29T04:26:03;4.40;99.90
11284;DHT22;5698;47.332;11.180;2022-09-29T04:28:31;4.50;99.90
11284;DHT22;5698;47.332;11.180;2022-09-29T04:31:00;4.50;99.90
11284;DHT22;5698;47.332;11.180;2022-09-29T04:33:27;4.50;99.90
11284;DHT22;5698;47.332;11.180;2022-09-29T04:35:56;4.40;99.90
11284;DHT22;5698;47.332;11.180;2022-09-29T04:38:23;4.40;99.90
11284;DHT22;5698;47.332;11.180;2022-09-29T04:40:50;4.50;99.90
11284;DHT22;5698;47.332;11.180;2022-09-29T04:43:17;4.50;99.90
11284;DHT22;5698;47.332;11.180;2022-09-29T04:45:44;4.40;99.90
11284;DHT22;5698;47.332;11.180;2022-09-29T04:48:12;4.40;99.90
11284;DHT22;5698;47.332;11.180;2022-09-29T04:50:39;4.40;99.90
11284;DHT22;5698;47.332;11.180;2022-09-29T04:53:08;4.40;99.90
11284;DHT22;5698;47.332;11.180;2022-09-29T04:55:36;4.40;99.90
11284;DHT22;5698;47.332;11.180;2022-09-29T04:58:03;4.50;99.90
11284;DHT22;5698;47.332;11.180;2022-09-29T05:00:30;4.50;99.90
11284;DHT22;5698;47.332;11.180;2022-09-29T05:02:57;4.50;99.90
11284;DHT22;5698;47.332;11.180;2022-09-29T05:05:26;4.50;99.90
11284;DHT22;5698;47.332;11.180;2022-09-29T05:07:53;4.40;99.90
11284;DHT22;5698;47.332;11.180;2022-09-29T05:10:20;4.40;99.90
11284;DHT22;5698;47.332;11.180;2022-09-29T05:12:48;4.40;99.90
11284;DHT22;5698;47.332;11.180;2022-09-29T05:15:16;4.40;99.90
11284;DHT22;5698;47.332;11.180;2022-09-29T05:17:43;4.50;99.90
11284;DHT22;5698;47.332;11.180;2022-09-29T05:20:10;4.50;99.90
11284;DHT22;5698;47.332;11.180;2022-09-29T05:22:39;4.50;99.90
11284;DHT22;5698;47.332;11.180;2022-09-29T05:25:06;4.50;99.90
11284;DHT22;5698;47.332;11.180;2022-09-29T05:27:34;4.50;99.90
11284;DHT22;5698;47.332;11.180;2022-09-29T05:30:02;4.40;99.90
11284;DHT22;5698;47.332;11.180;2022-09-29T05:32:29;4.30;99.90
11284;DHT22;5698;47.332;11.180;2022-09-29T05:34:56;4.30;99.90
11284;DHT22;5698;47.332;11.180;2022-09-29T05:37:24;4.30;99.90
11284;DHT22;5698;47.332;11.180;2022-09-29T05:39:52;4.30;99.90
11284;DHT22;5698;47.332;11.180;2022-09-29T05:42:19;4.30;99.90
11284;DHT22;5698;47.332;11.180;2022-09-29T05:44:46;4.40;99.90
11284;DHT22;5698;47.332;11.180;2022-09-29T05:47:13;4.40;99.90
11284;DHT22;5698;47.332;11.180;2022-09-29T05:49:40;4.40;99.90
11284;DHT22;5698;47.332;11.180;2022-09-29T05:52:07;4.50;99.90
11284;DHT22;5698;47.332;11.180;2022-09-29T05:54:34;4.50;99.90
11284;DHT22;5698;47.332;11.180;2022-09-29T05:57:02;4.50;99.90
11284;DHT22;5698;47.332;11.180;2022-09-29T05:59:29;4.50;99.90
11284;DHT22;5698;47.332;11.180;2022-09-29T06:01:56;4.60;99.90
11284;DHT22;5698;47.332;11.180;2022-09-29T06:04:23;4.60;99.90
11284;DHT22;5698;47.332;11.180;2022-09-29T06:06:50;4.50;99.90
11284;DHT22;5698;47.332;11.180;2022-09-29T06:09:18;4.60;99.90
11284;DHT22;5698;47.332;11.180;2022-09-29T06:11:44;4.60;99.90
11284;DHT22;5698;47.332;11.180;2022-09-29T06:14:13;4.60;99.90
11284;DHT22;5698;47.332;11.180;2022-09-29T06:16:40;4.60;99.90
11284;DHT22;5698;47.332;11.180;2022-09-29T06:19:07;4.60;99.90
11284;DHT22;5698;47.332;11.180;2022-09-29T06:21:34;4.60;99.90
11284;DHT22;5698;47.332;11.180;2022-09-29T06:24:03;4.60;99.90
11284;DHT22;5698;47.332;11.180;2022-09-29T06:26:32;4.70;99.90
11284;DHT22;5698;47.332;11.180;2022-09-29T06:28:59;4.70;99.90
11284;DHT22;5698;47.332;11.180;2022-09-29T06:31:28;4.70;99.90
11284;DHT22;5698;47.332;11.180;2022-09-29T06:33:56;4.70;99.90
11284;DHT22;5698;47.332;11.180;2022-09-29T06:36:26;4.70;99.90
11284;DHT22;5698;47.332;11.180;2022-09-29T06:39:13;4.70;99.90
11284;DHT22;5698;47.332;11.180;2022-09-29T06:41:41;4.80;99.90
11284;DHT22;5698;47.332;11.180;2022-09-29T06:44:09;4.80;99.90
11284;DHT22;5698;47.332;11.180;2022-09-29T06:46:37;4.80;99.90
11284;DHT22;5698;47.332;11.180;2022-09-29T06:49:04;4.70;99.90
11284;DHT22;5698;47.332;11.180;2022-09-29T06:51:31;4.70;99.90
11284;DHT22;5698;47.332;11.180;2022-09-29T06:53:58;4.80;99.90
11284;DHT22;5698;47.332;11.180;2022-09-29T06:56:25;4.80;99.90
11284;DHT22;5698;47.332;11.180;2022-09-29T06:58:52;4.80;99.90
11284;DHT22;5698;47.332;11.180;2022-09-29T07:01:19;4.80;99.90
11284;DHT22;5698;47.332;11.180;2022-09-29T07:03:48;4.90;99.90
11284;DHT22;5698;47.332;11.180;2022-09-29T07:06:15;4.80;99.90
11284;DHT22;5698;47.332;11.180;2022-09-29T07:08:42;4.80;99.90
11284;DHT22;5698;47.332;11.180;2022-09-29T07:11:10;4.90;99.90
11284;DHT22;5698;47.332;11.180;2022-09-29T07:13:37;4.90;99.90
11284;DHT22;5698;47.332;11.180;2022-09-29T07:16:06;4.80;99.90
11284;DHT22;5698;47.332;11.180;2022-09-29T07:18:33;4.80;99.90
11284;DHT22;5698;47.332;11.180;2022-09-29T07:21:03;4.80;99.90
11284;DHT22;5698;47.332;11.180;2022-09-29T07:23:31;4.90;99.90
11284;DHT22;5698;47.332;11.180;2022-09-29T07:25:58;4.80;99.90
11284;DHT22;5698;47.332;11.180;2022-09-29T07:28:25;4.90;99.90
11284;DHT22;5698;47.332;11.180;2022-09-29T07:30:59;4.90;99.90
11284;DHT22;5698;47.332;11.180;2022-09-29T07:33:26;5.00;99.90
11284;DHT22;5698;47.332;11.180;2022-09-29T07:35:53;5.10;99.90
11284;DHT22;5698;47.332;11.180;2022-09-29T07:38:22;5.10;99.90
11284;DHT22;5698;47.332;11.180;2022-09-29T07:40:49;5.30;99.90
11284;DHT22;5698;47.332;11.180;2022-09-29T07:43:16;5.40;99.90
11284;DHT22;5698;47.332;11.180;2022-09-29T07:45:50;5.30;99.90
11284;DHT22;5698;47.332;11.180;2022-09-29T07:48:17;5.50;99.90
11284;DHT22;5698;47.332;11.180;2022-09-29T07:50:44;5.50;99.90
11284;DHT22;5698;47.332;11.180;2022-09-29T07:53:12;5.60;99.90
11284;DHT22;5698;47.332;11.180;2022-09-29T07:55:40;5.60;99.90
11284;DHT22;5698;47.332;11.180;2022-09-29T07:58:08;5.60;99.90
11284;DHT22;5698;47.332;11.180;2022-09-29T08:00:35;5.70;99.90
11284;DHT22;5698;47.332;11.180;2022-09-29T08:03:04;5.70;99.90
11284;DHT22;5698;47.332;11.180;2022-09-29T08:05:32;5.90;99.90
11284;DHT22;5698;47.332;11.180;2022-09-29T08:08:00;6.00;99.90
11284;DHT22;5698;47.332;11.180;2022-09-29T08:10:28;6.10;99.90
11284;DHT22;5698;47.332;11.180;2022-09-29T08:12:57;6.10;99.90
11284;DHT22;5698;47.332;11.180;2022-09-29T08:15:24;6.20;99.90
11284;DHT22;5698;47.332;11.180;2022-09-29T08:17:52;6.50;99.90
11284;DHT22;5698;47.332;11.180;2022-09-29T08:20:19;6.70;99.90
11284;DHT22;5698;47.332;11.180;2022-09-29T08:22:46;7.10;99.90
11284;DHT22;5698;47.332;11.180;2022-09-29T08:25:14;7.40;99.90
11284;DHT22;5698;47.332;11.180;2022-09-29T08:27:41;7.60;99.90
11284;DHT22;5698;47.332;11.180;2022-09-29T08:30:11;7.80;99.90
11284;DHT22;5698;47.332;11.180;2022-09-29T08:32:38;7.80;99.90
11284;DHT22;5698;47.332;11.180;2022-09-29T08:35:06;7.70;99.90
11284;DHT22;5698;47.332;11.180;2022-09-29T08:37:33;7.80;99.90
11284;DHT22;5698;47.332;11.180;2022-09-29T08:40:00;8.00;99.90
11284;DHT22;5698;47.332;11.180;2022-09-29T08:42:34;8.10;99.90
11284;DHT22;5698;47.332;11.180;2022-09-29T08:45:07;8.10;99.90
11284;DHT22;5698;47.332;11.180;2022-09-29T08:47:42;8.20;99.90
11284;DHT22;5698;47.332;11.180;2022-09-29T08:50:15;8.30;99.90
11284;DHT22;5698;47.332;11.180;2022-09-29T08:52:47;8.30;99.90
11284;DHT22;5698;47.332;11.180;2022-09-29T08:55:27;8.40;99.90
11284;DHT22;5698;47.332;11.180;2022-09-29T08:57:58;8.40;99.90
11284;DHT22;5698;47.332;11.180;2022-09-29T09:00:33;8.50;99.90
11284;DHT22;5698;47.332;11.180;2022-09-29T09:03:30;8.40;99.90
11284;DHT22;5698;47.332;11.180;2022-09-29T09:06:11;8.40;99.90
11284;DHT22;5698;47.332;11.180;2022-09-29T09:08:50;8.50;99.90
11284;DHT22;5698;47.332;11.180;2022-09-29T09:11:31;8.50;99.90
11284;DHT22;5698;47.332;11.180;2022-09-29T09:14:08;8.60;99.90
11284;DHT22;5698;47.332;11.180;2022-09-29T09:16:46;8.70;99.90
11284;DHT22;5698;47.332;11.180;2022-09-29T09:19:49;8.70;99.90
11284;DHT22;5698;47.332;11.180;2022-09-29T09:22:21;8.80;99.90
11284;DHT22;5698;47.332;11.180;2022-09-29T09:24:55;8.70;99.90
11284;DHT22;5698;47.332;11.180;2022-09-29T09:27:26;8.80;99.90
11284;DHT22;5698;47.332;11.180;2022-09-29T09:30:02;8.70;99.90
11284;DHT22;5698;47.332;11.180;2022-09-29T09:32:33;8.90;99.90
11284;DHT22;5698;47.332;11.180;2022-09-29T09:35:18;9.00;99.90
11284;DHT22;5698;47.332;11.180;2022-09-29T09:37:47;9.00;99.90
11284;DHT22;5698;47.332;11.180;2022-09-29T09:40:18;9.10;99.90
11284;DHT22;5698;47.332;11.180;2022-09-29T09:42:51;9.20;99.90
11284;DHT22;5698;47.332;11.180;2022-09-29T09:45:26;9.30;99.90
11284;DHT22;5698;47.332;11.180;2022-09-29T09:48:00;9.40;99.90
11284;DHT22;5698;47.332;11.180;2022-09-29T09:50:32;9.50;99.90
11284;DHT22;5698;47.332;11.180;2022-09-29T09:53:03;9.60;99.90
11284;DHT22;5698;47.332;11.180;2022-09-29T09:55:31;9.80;99.90
11284;DHT22;5698;47.332;11.180;2022-09-29T09:58:17;10.00;99.90
11284;DHT22;5698;47.332;11.180;2022-09-29T10:00:52;10.20;99.90
11284;DHT22;5698;47.332;11.180;2022-09-29T10:03:20;10.30;99.90
11284;DHT22;5698;47.332;11.180;2022-09-29T10:05:49;10.30;99.90
11284;DHT22;5698;47.332;11.180;2022-09-29T10:08:21;10.30;99.90
11284;DHT22;5698;47.332;11.180;2022-09-29T10:10:49;10.30;99.90
11284;DHT22;5698;47.332;11.180;2022-09-29T10:13:16;10.40;99.90
11284;DHT22;5698;47.332;11.180;2022-09-29T10:15:48;10.40;99.90
11284;DHT22;5698;47.332;11.180;2022-09-29T10:18:21;10.50;99.90
11284;DHT22;5698;47.332;11.180;2022-09-29T10:20:51;10.50;99.90
11284;DHT22;5698;47.332;11.180;2022-09-29T10:23:30;10.50;99.90
11284;DHT22;5698;47.332;11.180;2022-09-29T10:26:00;10.40;99.90
11284;DHT22;5698;47.332;11.180;2022-09-29T10:28:37;10.50;99.90
11284;DHT22;5698;47.332;11.180;2022-09-29T10:31:16;10.40;99.90
11284;DHT22;5698;47.332;11.180;2022-09-29T10:33:50;10.30;99.90
11284;DHT22;5698;47.332;11.180;2022-09-29T10:36:19;10.30;99.90
11284;DHT22;5698;47.332;11.180;2022-09-29T10:38:50;10.20;99.90
11284;DHT22;5698;47.332;11.180;2022-09-29T10:41:18;10.20;99.90
11284;DHT22;5698;47.332;11.180;2022-09-29T10:43:46;10.20;99.90
11284;DHT22;5698;47.332;11.180;2022-09-29T10:46:37;10.20;99.90
11284;DHT22;5698;47.332;11.180;2022-09-29T10:49:09;10.30;99.90
11284;DHT22;5698;47.332;11.180;2022-09-29T10:51:41;10.40;99.90
11284;DHT22;5698;47.332;11.180;2022-09-29T10:54:14;10.30;99.90
11284;DHT22;5698;47.332;11.180;2022-09-29T10:56:46;10.30;99.90
11284;DHT22;5698;47.332;11.180;2022-09-29T10:59:14;10.30;99.90
11284;DHT22;5698;47.332;11.180;2022-09-29T11:01:44;10.30;99.90
11284;DHT22;5698;47.332;11.180;2022-09-29T11:04:18;10.20;99.90
11284;DHT22;5698;47.332;11.180;2022-09-29T11:06:48;10.20;99.90
11284;DHT22;5698;47.332;11.180;2022-09-29T11:09:27;10.10;99.90
11284;DHT22;5698;47.332;11.180;2022-09-29T11:11:56;10.00;99.90
11284;DHT22;5698;47.332;11.180;2022-09-29T11:14:25;9.90;99.90
11284;DHT22;5698;47.332;11.180;2022-09-29T11:16:53;9.80;99.90
11284;DHT22;5698;47.332;11.180;2022-09-29T11:19:21;9.80;99.90
11284;DHT22;5698;47.332;11.180;2022-09-29T11:22:14;9.80;99.90
11284;DHT22;5698;47.332;11.180;2022-09-29T11:24:57;9.80;99.90
11284;DHT22;5698;47.332;11.180;2022-09-29T11:27:34;9.80;99.90
11284;DHT22;5698;47.332;11.180;2022-09-29T11:30:06;9.90;99.90
11284;DHT22;5698;47.332;11.180;2022-09-29T11:32:42;9.90;99.90
11284;DHT22;5698;47.332;11.180;2022-09-29T11:35:30;9.90;99.90
11284;DHT22;5698;47.332;11.180;2022-09-29T11:38:24;9.90;99.90
11284;DHT22;5698;47.332;11.180;2022-09-29T11:41:03;9.80;99.90
11284;DHT22;5698;47.332;11.180;2022-09-29T11:43:43;9.80;99.90
11284;DHT22;5698;47.332;11.180;2022-09-29T11:46:32;9.80;99.90
11284;DHT22;5698;47.332;11.180;2022-09-29T11:49:18;9.80;99.90
11284;DHT22;5698;47.332;11.180;2022-09-29T11:51:58;9.80;99.90
11284;DHT22;5698;47.332;11.180;2022-09-29T11:54:42;9.80;99.90
11284;DHT22;5698;47.332;11.180;2022-09-29T11:57:18;9.70;99.90
11284;DHT22;5698;47.332;11.180;2022-09-29T12:00:02;9.60;99.90
11284;DHT22;5698;47.332;11.180;2022-09-29T12:02:52;9.60;99.90
11284;DHT22;5698;47.332;11.180;2022-09-29T12:05:27;9.50;99.90
11284;DHT22;5698;47.332;11.180;2022-09-29T12:08:04;9.50;99.90
11284;DHT22;5698;47.332;11.180;2022-09-29T12:10:43;9.40;99.90
11284;DHT22;5698;47.332;11.180;2022-09-29T12:13:20;9.30;99.90
11284;DHT22;5698;47.332;11.180;2022-09-29T12:15:52;9.30;99.90
11284;DHT22;5698;47.332;11.180;2022-09-29T12:18:24;9.20;99.90
11284;DHT22;5698;47.332;11.180;2022-09-29T12:20:55;9.10;99.90
11284;DHT22;5698;47.332;11.180;2022-09-29T12:23:24;9.00;99.90
11284;DHT22;5698;47.332;11.180;2022-09-29T12:25:58;8.90;99.90
11284;DHT22;5698;47.332;11.180;2022-09-29T12:28:33;8.90;99.90
11284;DHT22;5698;47.332;11.180;2022-09-29T12:31:05;8.80;99.90
11284;DHT22;5698;47.332;11.180;2022-09-29T12:33:38;8.80;99.90
11284;DHT22;5698;47.332;11.180;2022-09-29T12:36:18;8.70;99.90
11284;DHT22;5698;47.332;11.180;2022-09-29T12:39:11;8.70;99.90
11284;DHT22;5698;47.332;11.180;2022-09-29T12:41:46;8.70;99.90
11284;DHT22;5698;47.332;11.180;2022-09-29T12:44:22;8.60;99.90
11284;DHT22;5698;47.332;11.180;2022-09-29T12:46:53;8.60;99.90
11284;DHT22;5698;47.332;11.180;2022-09-29T12:49:28;8.50;99.90
11284;DHT22;5698;47.332;11.180;2022-09-29T12:51:57;8.50;99.90
11284;DHT22;5698;47.332;11.180;2022-09-29T12:54:29;8.40;99.90
11284;DHT22;5698;47.332;11.180;2022-09-29T12:57:02;8.30;99.90
11284;DHT22;5698;47.332;11.180;2022-09-29T12:59:35;8.20;99.90
11284;DHT22;5698;47.332;11.180;2022-09-29T13:02:24;8.20;99.90
11284;DHT22;5698;47.332;11.180;2022-09-29T13:05:21;8.20;99.90
11284;DHT22;5698;47.332;11.180;2022-09-29T13:08:28;8.20;99.90
11284;DHT22;5698;47.332;11.180;2022-09-29T13:11:18;8.20;99.90
11284;DHT22;5698;47.332;11.180;2022-09-29T13:14:17;8.20;99.90
11284;DHT22;5698;47.332;11.180;2022-09-29T13:16:59;8.30;99.90
11284;DHT22;5698;47.332;11.180;2022-09-29T13:19:46;8.30;99.90
11284;DHT22;5698;47.332;11.180;2022-09-29T13:22:48;8.20;99.90
11284;DHT22;5698;47.332;11.180;2022-09-29T13:25:22;8.10;99.90
11284;DHT22;5698;47.332;11.180;2022-09-29T13:27:54;8.00;99.90
11284;DHT22;5698;47.332;11.180;2022-09-29T13:30:27;8.00;99.90
11284;DHT22;5698;47.332;11.180;2022-09-29T13:33:00;8.00;99.90
11284;DHT22;5698;47.332;11.180;2022-09-29T13:35:28;7.90;99.90
11284;DHT22;5698;47.332;11.180;2022-09-29T13:38:05;7.80;99.90
11284;DHT22;5698;47.332;11.180;2022-09-29T13:40:33;7.70;99.90
11284;DHT22;5698;47.332;11.180;2022-09-29T13:43:01;7.70;99.90
11284;DHT22;5698;47.332;11.180;2022-09-29T13:45:46;7.70;99.90
11284;DHT22;5698;47.332;11.180;2022-09-29T13:48:36;7.70;99.90
11284;DHT22;5698;47.332;11.180;2022-09-29T13:51:40;7.70;99.90
11284;DHT22;5698;47.332;11.180;2022-09-29T13:59:43;7.70;99.90
11284;DHT22;5698;47.332;11.180;2022-09-29T14:02:25;7.60;99.90
11284;DHT22;5698;47.332;11.180;2022-09-29T14:04:54;7.60;99.90
11284;DHT22;5698;47.332;11.180;2022-09-29T14:07:36;7.50;99.90
11284;DHT22;5698;47.332;11.180;2022-09-29T14:10:15;7.50;99.90
11284;DHT22;5698;47.332;11.180;2022-09-29T14:12:44;7.50;99.90
11284;DHT22;5698;47.332;11.180;2022-09-29T14:15:16;7.50;99.90
11284;DHT22;5698;47.332;11.180;2022-09-29T14:17:48;7.50;99.90
11284;DHT22;5698;47.332;11.180;2022-09-29T14:20:19;7.50;99.90
11284;DHT22;5698;47.332;11.180;2022-09-29T14:22:52;7.50;99.90
11284;DHT22;5698;47.332;11.180;2022-09-29T14:28:22;7.50;99.90
11284;DHT22;5698;47.332;11.180;2022-09-29T14:30:52;7.50;99.90
11284;DHT22;5698;47.332;11.180;2022-09-29T14:33:24;7.50;99.90
11284;DHT22;5698;47.332;11.180;2022-09-29T14:36:03;7.40;99.90
11284;DHT22;5698;47.332;11.180;2022-09-29T14:38:31;7.40;99.90
11284;DHT22;5698;47.332;11.180;2022-09-29T14:41:02;7.40;99.90
11284;DHT22;5698;47.332;11.180;2022-09-29T14:43:37;7.40;99.90
11284;DHT22;5698;47.332;11.180;2022-09-29T14:46:31;7.40;99.90
11284;DHT22;5698;47.332;11.180;2022-09-29T14:49:36;7.40;99.90
11284;DHT22;5698;47.332;11.180;2022-09-29T14:52:48;7.40;99.90
11284;DHT22;5698;47.332;11.180;2022-09-29T14:55:24;7.30;99.90
11284;DHT22;5698;47.332;11.180;2022-09-29T14:58:03;7.30;99.90
11284;DHT22;5698;47.332;11.180;2022-09-29T15:00:42;7.20;99.90
11284;DHT22;5698;47.332;11.180;2022-09-29T15:03:14;7.10;99.90
11284;DHT22;5698;47.332;11.180;2022-09-29T15:05:45;7.10;99.90
11284;DHT22;5698;47.332;11.180;2022-09-29T15:08:25;7.00;99.90
11284;DHT22;5698;47.332;11.180;2022-09-29T15:10:53;7.00;99.90
11284;DHT22;5698;47.332;11.180;2022-09-29T15:13:25;6.90;99.90
11284;DHT22;5698;47.332;11.180;2022-09-29T15:15:57;6.90;99.90
11284;DHT22;5698;47.332;11.180;2022-09-29T15:18:41;6.90;99.90
11284;DHT22;5698;47.332;11.180;2022-09-29T15:21:20;6.90;99.90
11284;DHT22;5698;47.332;11.180;2022-09-29T15:24:10;6.80;99.90
11284;DHT22;5698;47.332;11.180;2022-09-29T15:26:43;6.80;99.90
11284;DHT22;5698;47.332;11.180;2022-09-29T15:29:14;6.70;99.90
11284;DHT22;5698;47.332;11.180;2022-09-29T15:31:45;6.70;99.90
11284;DHT22;5698;47.332;11.180;2022-09-29T15:34:14;6.70;99.90
11284;DHT22;5698;47.332;11.180;2022-09-29T15:36:46;6.60;99.90
11284;DHT22;5698;47.332;11.180;2022-09-29T15:39:40;6.50;99.90
11284;DHT22;5698;47.332;11.180;2022-09-29T15:42:12;6.50;99.90
11284;DHT22;5698;47.332;11.180;2022-09-29T15:44:44;6.50;99.90
11284;DHT22;5698;47.332;11.180;2022-09-29T15:47:20;6.50;99.90
11284;DHT22;5698;47.332;11.180;2022-09-29T15:49:51;6.50;99.90
11284;DHT22;5698;47.332;11.180;2022-09-29T15:52:20;6.40;99.90
11284;DHT22;5698;47.332;11.180;2022-09-29T15:54:52;6.40;99.90
11284;DHT22;5698;47.332;11.180;2022-09-29T15:57:40;6.30;99.90
11284;DHT22;5698;47.332;11.180;2022-09-29T16:03:24;6.40;99.90
11284;DHT22;5698;47.332;11.180;2022-09-29T16:06:13;6.40;99.90
11284;DHT22;5698;47.332;11.180;2022-09-29T16:08:46;6.40;99.90
11284;DHT22;5698;47.332;11.180;2022-09-29T16:11:21;6.40;99.90
11284;DHT22;5698;47.332;11.180;2022-09-29T16:13:53;6.40;99.90
11284;DHT22;5698;47.332;11.180;2022-09-29T16:16:32;6.30;99.90
11284;DHT22;5698;47.332;11.180;2022-09-29T16:19:02;6.30;99.90
11284;DHT22;5698;47.332;11.180;2022-09-29T16:21:35;6.40;99.90
11284;DHT22;5698;47.332;11.180;2022-09-29T16:24:12;6.40;99.90
11284;DHT22;5698;47.332;11.180;2022-09-29T16:26:44;6.40;99.90
11284;DHT22;5698;47.332;11.180;2022-09-29T16:29:30;6.40;99.90
11284;DHT22;5698;47.332;11.180;2022-09-29T16:31:58;6.30;99.90
11284;DHT22;5698;47.332;11.180;2022-09-29T16:34:29;6.30;99.90